Time;durP1;ratioP1;P1;durP2;ratioP2;P2;SDS_P1;SDS_P2;PMS_P1;PMS_P2;Temp;Humidity;BMP_temperature;BMP_pressure;BME280_temperature;BME280_humidity;BME280_pressure;Samples;Min_cycle;Max_cycle;Signal;HPM_P1;HPM_P2
2022/01/15 00:01:09;;;;;;;0.20;0.10;;;;;;;1.10;100.00;101908.16;5035477;28;20952;-54
2022/01/15 00:03:35;;;;;;;0.20;0.10;;;;;;;1.00;100.00;101906.03;5036062;28;20505;-54
2022/01/15 00:06:02;;;;;;;0.20;0.10;;;;;;;0.96;100.00;101907.66;5035897;28;20534;-54
2022/01/15 00:08:29;;;;;;;0.20;0.10;;;;;;;0.94;100.00;101911.03;5035521;28;20471;-53
2022/01/15 00:10:55;;;;;;;0.20;0.10;;;;;;;0.69;100.00;101904.03;5035367;28;20863;-54
2022/01/15 00:13:28;;;;;;;0.20;0.10;;;;;;;0.97;100.00;101892.84;5034995;28;20463;-54
2022/01/15 00:16:08;;;;;;;0.20;0.10;;;;;;;1.13;100.00;101893.44;5035220;28;20483;-54
2022/01/15 00:18:48;;;;;;;0.20;0.10;;;;;;;1.21;100.00;101885.81;5034485;28;20471;-54
2022/01/15 00:21:15;;;;;;;0.20;0.10;;;;;;;1.15;100.00;101886.53;5035796;28;20443;-53
2022/01/15 00:23:43;;;;;;;0.20;0.10;;;;;;;0.96;100.00;101888.41;5035667;28;20465;-53
2022/01/15 00:26:10;;;;;;;0.20;0.10;;;;;;;1.02;100.00;101886.03;5035649;28;20493;-53
2022/01/15 00:28:36;;;;;;;0.20;0.10;;;;;;;0.94;100.00;101898.81;5018004;28;20463;-54
2022/01/15 00:31:03;;;;;;;0.20;0.10;;;;;;;0.86;100.00;101902.91;5034656;28;20795;-54
2022/01/15 00:33:30;;;;;;;0.20;0.10;;;;;;;0.98;100.00;101889.38;5035041;28;20448;-53
2022/01/15 00:35:58;;;;;;;0.20;0.10;;;;;;;0.92;100.00;101895.25;5034987;28;20913;-54
2022/01/15 00:38:25;;;;;;;0.20;0.10;;;;;;;1.30;100.00;101901.88;5035236;28;20468;-54
2022/01/15 00:40:51;;;;;;;0.50;0.47;;;;;;;1.22;100.00;101905.94;5035857;28;20444;-53
2022/01/15 00:43:19;;;;;;;0.20;0.10;;;;;;;1.22;100.00;101905.94;5035478;28;20483;-53
2022/01/15 00:45:46;;;;;;;0.20;0.10;;;;;;;1.26;100.00;101897.38;5017847;28;20452;-54
2022/01/15 00:48:13;;;;;;;0.20;0.20;;;;;;;0.95;100.00;101891.84;5034945;28;20835;-54
2022/01/15 00:50:40;;;;;;;0.20;0.10;;;;;;;0.97;100.00;101896.34;5034701;28;20874;-53
2022/01/15 00:53:07;;;;;;;0.20;0.10;;;;;;;1.04;100.00;101884.34;5034679;28;20487;-54
2022/01/15 00:55:34;;;;;;;0.27;0.20;;;;;;;0.88;100.00;101875.94;5034735;28;20499;-54
2022/01/15 00:58:01;;;;;;;0.20;0.10;;;;;;;0.93;100.00;101893.53;5034434;28;20510;-53
2022/01/15 01:00:28;;;;;;;0.20;0.10;;;;;;;0.74;100.00;101894.59;5034212;28;20921;-53
2022/01/15 01:02:56;;;;;;;0.20;0.20;;;;;;;0.65;100.00;101883.78;5034195;28;20451;-54
2022/01/15 01:05:23;;;;;;;0.20;0.10;;;;;;;0.69;100.00;101873.50;5034031;28;20906;-54
2022/01/15 01:07:50;;;;;;;1.13;1.03;;;;;;;0.66;100.00;101883.84;5034093;28;20452;-54
2022/01/15 01:23:48;;;;;;;0.20;0.10;;;;;;;0.87;100.00;101871.56;5022551;28;20455;-54
2022/01/15 01:26:30;;;;;;;0.20;0.10;;;;;;;0.64;100.00;101874.16;5033490;28;20451;-54
2022/01/15 01:32:05;;;;;;;0.20;0.20;;;;;;;0.66;100.00;101875.97;4985817;28;20504;-54
2022/01/15 01:34:35;;;;;;;0.20;0.10;;;;;;;0.75;100.00;101870.22;5030685;28;20482;-54
2022/01/15 01:39:49;;;;;;;0.20;0.10;;;;;;;0.74;100.00;101861.47;5033344;28;20476;-54
2022/01/15 01:45:07;;;;;;;0.20;0.10;;;;;;;0.94;100.00;101863.91;5033107;28;20505;-54
2022/01/15 01:47:40;;;;;;;0.40;0.40;;;;;;;0.97;100.00;101867.56;5033523;28;20480;-53
2022/01/15 01:50:20;;;;;;;0.20;0.20;;;;;;;0.95;100.00;101870.91;5033661;28;20518;-53
2022/01/15 01:52:49;;;;;;;1.53;1.53;;;;;;;0.86;100.00;101872.38;5033351;28;20969;-53
2022/01/15 01:55:19;;;;;;;0.20;0.10;;;;;;;1.01;100.00;101871.16;5033483;28;20565;-54
2022/01/15 01:57:46;;;;;;;0.20;0.10;;;;;;;1.00;100.00;101862.41;5033530;28;20464;-54
2022/01/15 02:00:15;;;;;;;0.20;0.10;;;;;;;1.02;100.00;101865.09;5033496;28;20511;-54
2022/01/15 02:02:42;;;;;;;2.13;1.40;;;;;;;1.21;100.00;101875.34;5033842;28;20506;-54
2022/01/15 02:05:10;;;;;;;0.20;0.10;;;;;;;1.52;100.00;101858.97;5033883;28;20444;-54
2022/01/15 02:07:36;;;;;;;0.20;0.10;;;;;;;1.11;100.00;101861.06;5034041;28;20501;-53
2022/01/15 02:10:05;;;;;;;0.20;0.10;;;;;;;0.96;100.00;101863.16;5033327;28;20503;-54
2022/01/15 02:12:32;;;;;;;0.20;0.10;;;;;;;0.99;100.00;101863.25;5033368;28;20448;-54
2022/01/15 02:15:05;;;;;;;0.20;0.10;;;;;;;1.11;100.00;101860.19;5033473;28;20506;-54
2022/01/15 02:17:32;;;;;;;0.20;0.10;;;;;;;1.23;100.00;101854.44;5033663;28;20505;-54
2022/01/15 02:25:19;;;;;;;0.20;0.10;;;;;;;1.05;100.00;101846.84;5019558;28;20483;-51
2022/01/15 02:27:46;;;;;;;0.20;0.10;;;;;;;1.04;100.00;101853.81;5032505;28;20447;-51
2022/01/15 02:30:13;;;;;;;0.20;0.10;;;;;;;1.17;100.00;101849.91;5032586;28;20506;-51
2022/01/15 02:32:40;;;;;;;0.20;0.10;;;;;;;1.34;100.00;101846.13;5032622;28;20483;-53
2022/01/15 02:35:07;;;;;;;0.20;0.10;;;;;;;1.44;100.00;101844.72;5032127;28;20813;-53
2022/01/15 02:37:34;;;;;;;0.20;0.10;;;;;;;1.37;100.00;101848.88;5032273;28;20865;-51
2022/01/15 02:40:00;;;;;;;0.20;0.10;;;;;;;1.38;100.00;101841.91;5032593;28;20480;-51
2022/01/15 02:42:30;;;;;;;0.57;0.57;;;;;;;1.39;100.00;101836.72;5032578;28;20509;-51
2022/01/15 02:45:00;;;;;;;3.13;0.67;;;;;;;1.50;100.00;101839.66;5031983;28;20487;-51
2022/01/15 02:50:12;;;;;;;0.20;0.10;;;;;;;1.62;100.00;101841.81;5038812;28;20881;-52
2022/01/15 02:52:39;;;;;;;0.20;0.10;;;;;;;1.30;100.00;101835.50;5033922;28;20459;-51
2022/01/15 02:55:06;;;;;;;0.20;0.10;;;;;;;1.58;100.00;101838.19;5032338;28;20942;-51
2022/01/15 02:57:32;;;;;;;0.20;0.10;;;;;;;1.41;100.00;101848.13;5014723;28;20479;-51
2022/01/15 02:59:59;;;;;;;0.20;0.10;;;;;;;1.46;100.00;101836.06;5032149;28;20537;-51
2022/01/15 03:02:31;;;;;;;0.20;0.10;;;;;;;1.72;100.00;101836.91;5014392;28;20813;-52
2022/01/15 03:04:58;;;;;;;0.20;0.10;;;;;;;1.62;100.00;101824.34;5033534;28;20459;-51
2022/01/15 03:07:25;;;;;;;0.30;0.20;;;;;;;1.41;100.00;101829.78;5014793;28;20494;-52
2022/01/15 03:09:51;;;;;;;0.20;0.10;;;;;;;1.65;100.00;101826.22;5032657;28;20541;-51
2022/01/15 03:12:18;;;;;;;0.20;0.10;;;;;;;1.83;100.00;101820.66;5044672;28;20533;-52
2022/01/15 03:14:47;;;;;;;0.20;0.10;;;;;;;1.91;100.00;101817.41;5032009;28;20463;-52
2022/01/15 03:17:14;;;;;;;0.20;0.10;;;;;;;1.56;100.00;101820.66;5044292;28;20487;-51
2022/01/15 03:19:42;;;;;;;0.60;0.60;;;;;;;1.68;100.00;101821.06;5032013;28;20468;-51
2022/01/15 03:22:08;;;;;;;0.20;0.10;;;;;;;1.37;100.00;101819.13;5032258;28;20448;-51
2022/01/15 03:24:35;;;;;;;0.30;0.27;;;;;;;1.30;100.00;101814.56;5031975;28;20447;-51
2022/01/15 03:27:03;;;;;;;0.20;0.10;;;;;;;1.40;100.00;101809.69;5031905;28;20444;-52
2022/01/15 03:29:29;;;;;;;0.20;0.10;;;;;;;1.35;100.00;101807.72;5031677;28;20475;-53
2022/01/15 03:31:56;;;;;;;0.20;0.20;;;;;;;1.61;100.00;101811.22;5032895;28;20456;-51
2022/01/15 03:34:22;;;;;;;0.20;0.10;;;;;;;1.64;100.00;101799.09;5032102;28;20513;-51
2022/01/15 03:36:49;;;;;;;0.20;0.10;;;;;;;1.72;100.00;101794.09;5031939;28;20492;-51
2022/01/15 03:39:16;;;;;;;0.20;0.13;;;;;;;1.60;100.00;101793.72;5041623;28;20537;-53
2022/01/15 03:41:43;;;;;;;0.33;0.33;;;;;;;1.47;100.00;101793.31;5031891;28;20452;-51
2022/01/15 03:44:09;;;;;;;0.20;0.10;;;;;;;1.70;100.00;101787.94;5031565;28;21008;-51
2022/01/15 03:46:36;;;;;;;0.20;0.10;;;;;;;1.68;100.00;101780.03;5031688;28;21018;-51
2022/01/15 03:49:03;;;;;;;0.20;0.10;;;;;;;1.84;100.00;101781.38;5031787;28;20472;-51
2022/01/15 03:51:29;;;;;;;0.20;0.10;;;;;;;1.84;100.00;101783.09;5031941;28;20451;-51
2022/01/15 03:53:56;;;;;;;0.20;0.10;;;;;;;1.72;100.00;101781.00;5006959;28;20463;-51
2022/01/15 03:56:23;;;;;;;0.20;0.10;;;;;;;1.79;100.00;101769.88;5031510;28;20549;-53
2022/01/15 03:58:49;;;;;;;0.20;0.10;;;;;;;1.95;100.00;101772.13;5031703;28;20480;-51
2022/01/15 04:01:16;;;;;;;0.20;0.10;;;;;;;1.72;100.00;101768.78;5035298;28;20513;-51
2022/01/15 04:03:43;;;;;;;0.20;0.10;;;;;;;1.79;100.00;101772.50;5031530;28;20455;-51
2022/01/15 04:06:09;;;;;;;0.20;0.10;;;;;;;1.69;100.00;101766.06;5032680;28;20497;-51
2022/01/15 04:08:36;;;;;;;1.13;1.13;;;;;;;1.80;100.00;101769.03;5034880;28;20522;-51
2022/01/15 04:11:03;;;;;;;0.20;0.10;;;;;;;1.87;100.00;101760.50;5044308;28;20496;-51
2022/01/15 04:13:29;;;;;;;0.30;0.30;;;;;;;1.88;100.00;101762.28;5047398;28;20533;-51
2022/01/15 04:15:56;;;;;;;0.20;0.20;;;;;;;1.87;100.00;101767.47;5035932;28;20483;-51
2022/01/15 04:18:23;;;;;;;0.30;0.30;;;;;;;2.16;100.00;101757.84;5035184;28;20831;-51
2022/01/15 04:20:51;;;;;;;0.20;0.10;;;;;;;2.36;100.00;101762.84;5035271;28;20485;-51
2022/01/15 04:23:17;;;;;;;0.20;0.10;;;;;;;2.40;100.00;101753.31;5035205;28;20451;-51
2022/01/15 04:25:44;;;;;;;0.30;0.20;;;;;;;2.28;100.00;101751.22;5035118;28;20447;-51
2022/01/15 04:28:12;;;;;;;0.20;0.10;;;;;;;2.32;100.00;101750.47;5034784;28;20474;-51
2022/01/15 04:30:47;;;;;;;0.20;0.10;;;;;;;2.20;100.00;101755.38;5035125;28;20451;-51
2022/01/15 04:33:14;;;;;;;0.20;0.10;;;;;;;2.03;100.00;101751.34;5035377;28;20492;-51
2022/01/15 04:35:41;;;;;;;0.20;0.10;;;;;;;1.87;100.00;101750.00;5034923;28;20629;-51
2022/01/15 04:38:11;;;;;;;0.20;0.10;;;;;;;1.85;100.00;101759.56;5034537;28;20502;-51
2022/01/15 04:40:37;;;;;;;0.20;0.10;;;;;;;2.07;100.00;101746.25;5036135;28;20456;-51
2022/01/15 04:43:04;;;;;;;0.20;0.10;;;;;;;2.07;100.00;101748.00;5042444;28;20456;-51
2022/01/15 04:45:31;;;;;;;0.30;0.10;;;;;;;2.18;100.00;101743.03;5034826;28;20509;-51
2022/01/15 04:47:58;;;;;;;0.20;0.10;;;;;;;1.94;100.00;101748.47;5035286;28;20452;-51
2022/01/15 04:50:24;;;;;;;0.20;0.10;;;;;;;2.04;100.00;101748.78;5041226;28;20508;-51
2022/01/15 04:52:51;;;;;;;0.20;0.10;;;;;;;2.04;100.00;101743.53;5034677;28;20451;-51
2022/01/15 04:55:18;;;;;;;0.20;0.10;;;;;;;2.05;100.00;101731.31;5034605;28;20826;-51
2022/01/15 04:57:44;;;;;;;0.20;0.10;;;;;;;2.02;100.00;101737.34;5034582;28;20491;-51
2022/01/15 05:00:15;;;;;;;0.20;0.10;;;;;;;2.34;100.00;101742.66;5034422;28;20479;-51
2022/01/15 05:02:42;;;;;;;0.20;0.10;;;;;;;2.40;100.00;101736.69;5034505;28;20452;-51
2022/01/15 05:05:09;;;;;;;0.20;0.10;;;;;;;2.40;100.00;101736.69;5034362;28;20526;-51
2022/01/15 05:07:36;;;;;;;0.20;0.10;;;;;;;2.31;100.00;101743.44;5034247;28;20471;-52
2022/01/15 05:10:05;;;;;;;0.20;0.10;;;;;;;2.29;100.00;101739.88;5036125;28;20868;-50
2022/01/15 05:12:39;;;;;;;0.20;0.10;;;;;;;2.22;100.00;101732.69;5034040;28;20452;-51
2022/01/15 05:15:07;;;;;;;0.20;0.10;;;;;;;2.33;100.00;101740.84;5036136;28;20459;-50
2022/01/15 05:17:33;;;;;;;0.20;0.10;;;;;;;2.08;100.00;101729.69;5034268;28;20998;-51
2022/01/15 05:20:00;;;;;;;0.20;0.10;;;;;;;2.10;100.00;101734.06;5033477;28;20468;-50
2022/01/15 05:22:27;;;;;;;0.20;0.10;;;;;;;2.25;100.00;101730.16;5034669;28;20501;-51
2022/01/15 05:24:53;;;;;;;0.20;0.10;;;;;;;2.13;100.00;101734.16;5035574;28;20487;-51
2022/01/15 05:27:20;;;;;;;0.20;0.10;;;;;;;2.05;100.00;101731.31;5033899;28;20444;-51
2022/01/15 05:29:47;;;;;;;0.20;0.10;;;;;;;2.01;100.00;101732.06;5033721;28;20471;-51
2022/01/15 05:32:13;;;;;;;0.20;0.10;;;;;;;2.05;100.00;101724.31;5033727;28;21017;-51
2022/01/15 05:34:40;;;;;;;0.20;0.13;;;;;;;2.12;100.00;101722.78;5033864;28;20999;-50
2022/01/15 05:37:07;;;;;;;0.20;0.17;;;;;;;2.05;100.00;101718.19;5033968;28;20494;-51
2022/01/15 05:39:34;;;;;;;0.20;0.10;;;;;;;1.98;100.00;101724.13;5033802;28;20472;-51
2022/01/15 05:42:00;;;;;;;0.20;0.10;;;;;;;1.99;100.00;101712.78;5033908;28;20487;-51
2022/01/15 05:44:27;;;;;;;0.20;0.10;;;;;;;2.10;100.00;101719.22;5036642;28;20867;-52
2022/01/15 05:46:54;;;;;;;0.20;0.10;;;;;;;1.91;100.00;101712.53;5024825;28;20444;-50
2022/01/15 05:49:20;;;;;;;0.20;0.10;;;;;;;2.01;100.00;101705.84;5033813;28;20475;-51
2022/01/15 05:51:47;;;;;;;0.20;0.10;;;;;;;1.96;100.00;101707.47;5034798;28;20463;-51
2022/01/15 05:54:14;;;;;;;0.20;0.10;;;;;;;2.01;100.00;101719.84;5033518;28;20474;-51
2022/01/15 05:56:41;;;;;;;0.20;0.10;;;;;;;2.07;100.00;101716.53;5033656;28;20556;-51
2022/01/15 05:59:08;;;;;;;0.20;0.10;;;;;;;2.06;100.00;101714.75;5033292;28;20479;-50
2022/01/15 06:01:36;;;;;;;0.20;0.10;;;;;;;2.07;100.00;101713.91;5033587;28;20451;-51
2022/01/15 06:04:03;;;;;;;0.20;0.10;;;;;;;2.17;100.00;101710.69;5033314;28;20456;-51
2022/01/15 06:06:30;;;;;;;0.20;0.10;;;;;;;2.12;100.00;101711.41;5033374;28;20464;-51
2022/01/15 06:08:57;;;;;;;0.20;0.10;;;;;;;2.15;100.00;101716.72;5034027;28;20478;-51
2022/01/15 06:11:24;;;;;;;0.83;0.83;;;;;;;2.32;100.00;101718.09;5033169;28;20526;-51
2022/01/15 06:13:51;;;;;;;0.20;0.10;;;;;;;2.23;100.00;101715.22;5033029;28;20455;-51
2022/01/15 06:16:18;;;;;;;0.20;0.10;;;;;;;2.29;100.00;101705.78;5032851;28;20510;-52
2022/01/15 06:18:45;;;;;;;0.30;0.20;;;;;;;2.23;100.00;101712.59;5033037;28;20482;-50
2022/01/15 06:21:12;;;;;;;0.20;0.10;;;;;;;2.49;100.00;101706.34;5033056;28;20451;-50
2022/01/15 06:23:39;;;;;;;0.20;0.10;;;;;;;2.26;100.00;101702.19;5038681;28;20451;-50
2022/01/15 06:26:05;;;;;;;0.30;0.20;;;;;;;2.21;100.00;101704.69;5039532;28;20498;-53
2022/01/15 06:28:32;;;;;;;0.20;0.10;;;;;;;2.22;100.00;101703.84;5032979;28;20471;-51
2022/01/15 06:30:59;;;;;;;0.20;0.10;;;;;;;2.26;100.00;101689.97;5032703;28;20455;-51
2022/01/15 06:33:31;;;;;;;0.20;0.10;;;;;;;2.18;100.00;101693.22;5016150;28;20463;-52
2022/01/15 06:35:58;;;;;;;0.30;0.20;;;;;;;2.22;100.00;101692.47;5035821;28;20455;-51
2022/01/15 06:38:25;;;;;;;0.20;0.10;;;;;;;2.34;100.00;101698.06;5032440;28;20468;-50
2022/01/15 06:40:51;;;;;;;0.20;0.10;;;;;;;2.24;100.00;101703.88;5032634;28;20478;-50
2022/01/15 06:43:18;;;;;;;0.20;0.10;;;;;;;2.28;100.00;101700.50;5032361;28;20448;-51
2022/01/15 06:45:45;;;;;;;0.20;0.10;;;;;;;2.23;100.00;101704.75;5034574;28;20537;-50
2022/01/15 06:48:11;;;;;;;0.20;0.10;;;;;;;2.27;100.00;101696.97;5032568;28;20451;-50
2022/01/15 06:50:38;;;;;;;0.20;0.10;;;;;;;2.26;100.00;101703.06;5032387;28;20452;-51
2022/01/15 06:53:05;;;;;;;0.20;0.10;;;;;;;2.25;100.00;101710.91;5032546;28;20456;-52
2022/01/15 06:55:32;;;;;;;0.20;0.10;;;;;;;2.33;100.00;101694.56;5032377;28;20444;-51
2022/01/15 06:57:58;;;;;;;0.20;0.10;;;;;;;2.34;100.00;101692.81;5032726;28;20483;-51
2022/01/15 07:00:28;;;;;;;0.40;0.40;;;;;;;2.33;100.00;101693.63;5031993;28;20957;-52
2022/01/15 07:02:55;;;;;;;0.20;0.10;;;;;;;2.35;100.00;101698.09;5033787;28;20455;-51
2022/01/15 07:05:21;;;;;;;0.20;0.10;;;;;;;2.34;100.00;101701.56;5039501;28;20452;-53
2022/01/15 07:07:49;;;;;;;0.87;0.87;;;;;;;2.38;100.00;101699.91;5042001;28;20451;-51
2022/01/15 07:10:15;;;;;;;0.20;0.10;;;;;;;2.37;100.00;101692.88;5035891;28;20467;-51
2022/01/15 07:12:42;;;;;;;0.30;0.20;;;;;;;2.47;100.00;101699.25;5036497;28;20451;-51
2022/01/15 07:15:11;;;;;;;1.50;0.70;;;;;;;2.45;100.00;101693.06;5033120;28;20451;-51
2022/01/15 07:17:45;;;;;;;0.20;0.10;;;;;;;2.45;100.00;101687.84;5033166;28;20515;-51
2022/01/15 07:20:14;;;;;;;0.20;0.10;;;;;;;2.42;100.00;101679.88;5031544;28;20475;-51
2022/01/15 07:22:41;;;;;;;0.20;0.10;;;;;;;2.47;100.00;101686.13;5030856;28;20475;-51
2022/01/15 07:25:09;;;;;;;0.30;0.20;;;;;;;2.49;100.00;101681.84;5031814;28;20452;-51
2022/01/15 07:27:36;;;;;;;0.20;0.20;;;;;;;2.56;100.00;101682.03;5031652;28;20553;-51
2022/01/15 07:30:08;;;;;;;0.20;0.10;;;;;;;2.53;100.00;101681.94;5033031;28;20472;-51
2022/01/15 07:32:35;;;;;;;0.30;0.10;;;;;;;2.65;100.00;101677.03;5033290;28;20482;-51
2022/01/15 07:35:02;;;;;;;0.20;0.10;;;;;;;2.55;100.00;101675.00;5023405;28;20448;-51
2022/01/15 07:37:31;;;;;;;0.20;0.10;;;;;;;2.48;100.00;101669.56;5031843;28;20492;-51
2022/01/15 07:39:58;;;;;;;0.20;0.10;;;;;;;2.35;100.00;101665.72;5031994;28;20987;-51
2022/01/15 07:42:28;;;;;;;0.20;0.10;;;;;;;2.34;100.00;101669.19;5033588;28;20458;-52
2022/01/15 07:44:54;;;;;;;0.20;0.10;;;;;;;2.34;100.00;101662.22;5035467;28;20525;-52
2022/01/15 07:47:21;;;;;;;0.30;0.20;;;;;;;2.61;100.00;101676.91;5035605;28;20444;-52
2022/01/15 07:49:48;;;;;;;0.20;0.10;;;;;;;2.50;100.00;101676.63;5035450;28;20554;-52
2022/01/15 07:52:14;;;;;;;0.20;0.10;;;;;;;2.49;100.00;101680.09;5035437;28;20443;-52
2022/01/15 07:54:41;;;;;;;0.20;0.10;;;;;;;2.55;100.00;101680.25;5035815;28;20512;-52
2022/01/15 07:57:08;;;;;;;0.20;0.10;;;;;;;2.46;100.00;101682.63;5035481;28;20557;-52
2022/01/15 07:59:34;;;;;;;0.20;0.10;;;;;;;2.51;100.00;101686.28;5037831;28;20510;-52
2022/01/15 08:02:02;;;;;;;0.20;0.10;;;;;;;2.36;100.00;101684.13;5036513;28;20535;-52
2022/01/15 08:04:29;;;;;;;0.20;0.10;;;;;;;2.45;100.00;101688.72;5038689;28;20520;-52
2022/01/15 08:06:56;;;;;;;1.13;1.13;;;;;;;2.35;100.00;101687.59;5045162;28;20443;-51
2022/01/15 08:09:22;;;;;;;0.20;0.10;;;;;;;2.34;100.00;101690.19;5035207;28;20482;-52
2022/01/15 08:11:49;;;;;;;0.30;0.20;;;;;;;2.43;100.00;101685.16;5020339;28;20451;-52
2022/01/15 08:14:16;;;;;;;0.20;0.10;;;;;;;2.30;100.00;101689.19;5035513;28;20475;-52
2022/01/15 08:16:42;;;;;;;0.20;0.10;;;;;;;2.36;100.00;101691.13;5034994;28;20536;-52
2022/01/15 08:19:09;;;;;;;0.20;0.10;;;;;;;2.54;100.00;101695.97;5038167;28;20476;-52
2022/01/15 08:21:36;;;;;;;0.20;0.10;;;;;;;2.58;100.00;101696.06;5033091;28;20481;-53
2022/01/15 08:24:02;;;;;;;0.20;0.13;;;;;;;2.55;100.00;101685.50;5044648;28;20456;-52
2022/01/15 08:26:29;;;;;;;0.20;0.10;;;;;;;2.52;100.00;101681.91;5025859;28;20463;-52
2022/01/15 08:28:56;;;;;;;0.20;0.10;;;;;;;2.67;100.00;101687.56;5035110;28;20845;-53
2022/01/15 08:31:23;;;;;;;0.20;0.10;;;;;;;2.75;100.00;101688.66;5036957;28;20535;-53
2022/01/15 08:33:49;;;;;;;0.20;0.10;;;;;;;2.66;100.00;101684.06;5035443;28;20901;-53
2022/01/15 08:36:17;;;;;;;0.20;0.10;;;;;;;2.82;100.00;101679.19;5038660;28;20514;-53
2022/01/15 08:38:45;;;;;;;0.20;0.10;;;;;;;2.73;100.00;101690.34;5034447;28;20490;-53
2022/01/15 08:41:22;;;;;;;0.20;0.10;;;;;;;2.59;100.00;101697.84;5034627;28;20455;-53
2022/01/15 08:43:49;;;;;;;0.20;0.10;;;;;;;2.27;100.00;101689.13;5034874;28;20478;-53
2022/01/15 08:46:18;;;;;;;0.30;0.20;;;;;;;2.39;100.00;101688.56;5034812;28;20452;-52
2022/01/15 08:48:45;;;;;;;0.20;0.10;;;;;;;2.28;100.00;101684.75;5034687;28;20546;-52
2022/01/15 08:51:11;;;;;;;0.30;0.20;;;;;;;2.39;100.00;101678.06;5034222;28;20456;-53
2022/01/15 08:53:38;;;;;;;0.20;0.10;;;;;;;2.34;100.00;101682.31;5034452;28;20451;-53
2022/01/15 08:56:05;;;;;;;0.20;0.20;;;;;;;2.23;100.00;101678.50;5034013;28;20448;-53
2022/01/15 08:58:32;;;;;;;0.20;0.10;;;;;;;2.42;100.00;101677.25;5033235;28;20503;-53
2022/01/15 09:00:58;;;;;;;0.20;0.10;;;;;;;2.46;100.00;101671.25;5034048;28;20953;-53
2022/01/15 09:03:25;;;;;;;0.20;0.10;;;;;;;2.43;100.00;101677.28;5028421;28;20537;-52
2022/01/15 09:05:52;;;;;;;0.27;0.17;;;;;;;2.28;100.00;101674.25;5034353;28;20455;-53
2022/01/15 09:08:24;;;;;;;0.20;0.10;;;;;;;2.31;100.00;101663.84;5034194;28;20887;-53
2022/01/15 09:10:54;;;;;;;0.20;0.10;;;;;;;2.41;100.00;101675.47;5034172;28;20557;-53
2022/01/15 09:13:21;;;;;;;0.20;0.10;;;;;;;2.38;100.00;101668.44;5034339;28;20455;-53
2022/01/15 09:15:49;;;;;;;0.20;0.20;;;;;;;2.45;100.00;101670.34;5034007;28;20452;-53
2022/01/15 09:18:17;;;;;;;0.20;0.10;;;;;;;2.28;100.00;101656.78;5033273;28;20488;-52
2022/01/15 09:20:44;;;;;;;0.20;0.10;;;;;;;2.31;100.00;101653.34;5037463;28;20463;-53
2022/01/15 09:23:12;;;;;;;0.20;0.10;;;;;;;2.28;100.00;101658.53;5035556;28;20513;-53
2022/01/15 09:25:39;;;;;;;0.20;0.10;;;;;;;2.45;100.00;101657.22;5034267;28;20452;-52
2022/01/15 09:30:51;;;;;;;0.20;0.10;;;;;;;2.53;100.00;101670.56;5034105;28;20447;-52
2022/01/15 09:33:18;;;;;;;0.40;0.37;;;;;;;2.33;100.00;101667.41;5034111;28;20505;-53
2022/01/15 09:35:45;;;;;;;0.20;0.10;;;;;;;2.36;100.00;101663.13;5033986;28;20486;-53
2022/01/15 09:38:15;;;;;;;0.20;0.10;;;;;;;2.42;100.00;101657.16;5033609;28;20510;-53
2022/01/15 09:40:42;;;;;;;0.20;0.10;;;;;;;2.40;100.00;101663.22;5033586;28;20463;-52
2022/01/15 09:43:10;;;;;;;0.20;0.10;;;;;;;2.41;100.00;101655.38;5033814;28;20483;-53
2022/01/15 09:45:43;;;;;;;0.20;0.10;;;;;;;2.31;100.00;101653.34;5033063;28;20459;-53
2022/01/15 09:48:11;;;;;;;0.20;0.10;;;;;;;2.57;100.00;101664.53;5033757;28;20440;-52
2022/01/15 09:50:42;;;;;;;0.20;0.20;;;;;;;2.62;100.00;101655.97;5033137;28;20482;-53
2022/01/15 09:53:11;;;;;;;0.20;0.10;;;;;;;2.45;100.00;101659.84;5034177;28;20451;-53
2022/01/15 09:55:38;;;;;;;0.20;0.10;;;;;;;2.55;100.00;101654.00;5033771;28;20470;-53
2022/01/15 09:58:05;;;;;;;0.20;0.10;;;;;;;2.46;100.00;101655.50;5033350;28;20492;-53
2022/01/15 10:00:32;;;;;;;0.20;0.10;;;;;;;2.41;100.00;101647.50;5033465;28;20860;-53
2022/01/15 10:03:01;;;;;;;0.20;0.10;;;;;;;2.48;100.00;101640.72;5032961;28;20451;-53
2022/01/15 10:05:28;;;;;;;0.20;0.10;;;;;;;2.41;100.00;101638.75;5032602;28;20448;-53
2022/01/15 10:08:03;;;;;;;0.20;0.10;;;;;;;2.46;100.00;101637.13;5033462;28;20448;-53
2022/01/15 10:10:37;;;;;;;0.40;0.40;;;;;;;2.58;100.00;101625.22;5033189;28;20450;-53
2022/01/15 10:13:22;;;;;;;0.20;0.10;;;;;;;2.62;100.00;101629.72;5032993;28;20590;-53
2022/01/15 10:16:08;;;;;;;0.30;0.20;;;;;;;2.60;100.00;101625.25;5024012;28;20459;-52
2022/01/15 10:18:43;;;;;;;0.20;0.10;;;;;;;2.41;100.00;101621.28;5032872;28;20491;-52
2022/01/15 10:21:18;;;;;;;0.20;0.10;;;;;;;2.53;100.00;101623.34;5033117;28;20450;-54
2022/01/15 10:23:54;;;;;;;0.20;0.10;;;;;;;2.58;100.00;101627.84;5003857;28;20460;-53
2022/01/15 10:26:26;;;;;;;0.20;0.10;;;;;;;2.42;100.00;101630.03;5033262;28;21086;-53
2022/01/15 10:28:57;;;;;;;0.20;0.10;;;;;;;2.43;100.00;101624.81;5033123;28;20468;-53
2022/01/15 10:31:29;;;;;;;0.20;0.10;;;;;;;2.44;100.00;101617.84;5032774;28;20463;-53
2022/01/15 10:33:58;;;;;;;0.20;0.10;;;;;;;2.64;100.00;101611.38;5032552;28;20854;-53
2022/01/15 10:36:29;;;;;;;0.20;0.10;;;;;;;2.71;100.00;101612.41;5032200;28;20479;-53
2022/01/15 10:39:22;;;;;;;0.20;0.20;;;;;;;2.62;100.00;101619.22;5032241;28;20537;-53
2022/01/15 10:41:49;;;;;;;0.20;0.10;;;;;;;2.57;100.00;101615.56;5019232;28;20456;-52
2022/01/15 10:44:32;;;;;;;0.20;0.20;;;;;;;2.58;100.00;101603.31;5032221;28;20463;-53
2022/01/15 10:47:04;;;;;;;0.20;0.10;;;;;;;2.85;100.00;101600.50;5024751;28;20478;-52
2022/01/15 10:49:32;;;;;;;0.20;0.10;;;;;;;2.63;100.00;101604.34;5032626;28;20513;-52
2022/01/15 10:52:31;;;;;;;0.20;0.10;;;;;;;2.73;100.00;101589.69;5014378;28;20448;-53
2022/01/15 10:55:08;;;;;;;0.20;0.10;;;;;;;2.75;100.00;101595.91;4965571;28;20461;-52
2022/01/15 10:57:45;;;;;;;0.20;0.10;;;;;;;2.63;100.00;101596.47;5031483;28;20483;-53
2022/01/15 11:00:26;;;;;;;0.20;0.10;;;;;;;2.52;100.00;101582.19;5031931;28;20471;-52
2022/01/15 11:02:53;;;;;;;0.20;0.10;;;;;;;2.58;100.00;101583.22;5044967;28;20501;-54
2022/01/15 11:05:21;;;;;;;0.20;0.10;;;;;;;2.53;100.00;101573.47;5035009;28;20968;-52
2022/01/15 11:07:48;;;;;;;0.20;0.10;;;;;;;2.53;100.00;101582.22;5033432;28;20459;-53
2022/01/15 11:10:15;;;;;;;0.20;0.10;;;;;;;2.64;100.00;101572.00;5033806;28;20892;-55
2022/01/15 11:12:42;;;;;;;0.70;0.70;;;;;;;2.60;100.00;101570.13;5035032;28;20501;-55
2022/01/15 11:15:09;;;;;;;0.20;0.10;;;;;;;2.72;100.00;101562.56;5035300;28;20474;-55
2022/01/15 11:17:36;;;;;;;0.20;0.10;;;;;;;3.02;100.00;101561.53;5034389;28;20529;-55
2022/01/15 11:20:05;;;;;;;0.20;0.10;;;;;;;2.86;100.00;101552.38;5036269;28;20517;-55
2022/01/15 11:22:33;;;;;;;0.20;0.10;;;;;;;2.83;100.00;101547.94;5044094;28;20455;-55
2022/01/15 11:24:59;;;;;;;0.20;0.10;;;;;;;2.75;100.00;101556.50;5037071;28;20506;-55
2022/01/15 11:27:29;;;;;;;0.20;0.10;;;;;;;2.85;100.00;101551.50;5036567;28;20455;-55
2022/01/15 11:29:58;;;;;;;0.20;0.10;;;;;;;2.84;100.00;101546.22;5035696;28;20481;-55
2022/01/15 11:32:27;;;;;;;0.63;0.43;;;;;;;2.71;100.00;101552.03;5036260;28;20529;-55
2022/01/15 11:35:08;;;;;;;0.20;0.10;;;;;;;2.59;100.00;101540.38;5035916;28;20887;-55
2022/01/15 11:37:43;;;;;;;0.20;0.10;;;;;;;2.74;100.00;101532.00;5035931;28;20487;-55
2022/01/15 11:40:35;;;;;;;0.20;0.10;;;;;;;2.96;100.00;101536.88;5035930;28;20566;-55
2022/01/15 11:43:24;;;;;;;0.20;0.10;;;;;;;2.89;100.00;101534.97;5042591;28;20479;-55
2022/01/15 11:45:54;;;;;;;0.20;0.10;;;;;;;2.91;100.00;101535.91;5035741;28;20542;-55
2022/01/15 11:48:27;;;;;;;0.20;0.10;;;;;;;2.98;100.00;101540.41;5035844;28;21011;-55
2022/01/15 11:51:15;;;;;;;0.20;0.17;;;;;;;2.84;100.00;101527.81;5041785;28;20501;-55
2022/01/15 11:53:54;;;;;;;0.20;0.10;;;;;;;2.99;100.00;101528.16;5035633;28;20453;-55
2022/01/15 11:56:21;;;;;;;0.20;0.10;;;;;;;3.03;100.00;101529.16;5036385;28;20498;-55
2022/01/15 11:58:48;;;;;;;0.20;0.10;;;;;;;2.88;100.00;101527.97;5035295;28;20495;-55
2022/01/15 12:01:42;;;;;;;0.20;0.10;;;;;;;2.93;100.00;101518.44;5036061;28;20481;-55
2022/01/15 12:04:28;;;;;;;0.20;0.10;;;;;;;2.67;100.00;101523.09;5038455;28;20459;-54